ADDS METAR Data INFO
IDs: Format: Raw Decoded Include TAF

Data at: 1148 UTC 21 Jun 2018

KBKT 211135Z AUTO 24006KT 4SM OVC003 A2979 RMK AO1
KBKT 211115Z AUTO 23006KT 5SM BKN003 A2979 RMK AO1
KBKT 211055Z AUTO 23006KT 7SM BKN003 A2979 RMK AO1
KBKT 211035Z AUTO 23005KT 7SM SCT003 A2978 RMK AO1
KBKT 211015Z AUTO 23003KT 10SM CLR A2977 RMK AO1
KBKT 210955Z AUTO 24005KT 10SM CLR A2977 RMK AO1
KBKT 210935Z AUTO 22005KT 10SM CLR A2976 RMK AO1
KBKT 210915Z AUTO 22003KT 10SM CLR A2977 RMK AO1
KBKT 210855Z AUTO 21004KT 5SM CLR A2977 RMK AO1
KBKT 210835Z AUTO 22003KT 7SM SCT002 A2977 RMK AO1
KBKT 210815Z AUTO 21004KT 4SM BKN002 BKN120 A2977 RMK AO1
KBKT 210755Z AUTO 21004KT 3SM BKN002 BKN120 A2977 RMK AO1
KBKT 210735Z AUTO 20011KT 2SM SCT002 A2978 RMK AO1
KBKT 210715Z AUTO 21003KT 5SM SCT024 A2979 RMK AO1
KBKT 210655Z AUTO 00000KT 10SM BKN026 BKN031 A2980 RMK AO1
KBKT 210635Z AUTO 00000KT 10SM OVC030 A2981 RMK AO1
KBKT 210615Z AUTO 01008KT 10SM SCT010 BKN030 A2983 RMK AO1
KBKT 210555Z AUTO 33007KT 10SM SCT032 SCT110 A2983 RMK AO1
KBKT 210535Z AUTO 22003KT 10SM SCT065 BKN100 A2982 RMK AO1
KBKT 210515Z AUTO 21007KT 10SM SCT075 BKN100 A2983 RMK AO1
KBKT 210455Z AUTO 15004KT 10SM SCT060 A2983 RMK AO1
KBKT 210435Z AUTO 19010KT 10SM BKN060 BKN075 BKN090 A2985 RMK AO1
KBKT 210415Z AUTO 00000KT 10SM OVC060 A2985 RMK AO1
KBKT 210355Z AUTO 00000KT 10SM SCT060 A2985 RMK AO1
KBKT 210335Z AUTO 06004KT 10SM SCT060 SCT075 SCT090 A2984 RMK AO1
KBKT 210315Z AUTO 03005KT 10SM SCT015 BKN060 OVC090 23/23 A2985 RMK AO1 T02300230
KBKT 210255Z AUTO 01006KT 10SM SCT006 SCT070 BKN120 A2986 RMK AO1
KBKT 210235Z AUTO 00000KT 10SM SCT120 A2984 RMK AO1
KBKT 210215Z AUTO 21008KT 10SM SCT120 A2983 RMK AO1
KBKT 210155Z AUTO 22003KT 10SM BKN120 A2983 RMK AO1
KBKT 210135Z AUTO 20010KT 10SM SCT120 A2982 RMK AO1
KBKT 210115Z AUTO 25005KT 10SM SCT042 SCT050 A2983 RMK AO1
KBKT 210055Z AUTO 23003KT 10SM SCT110 A2982 RMK AO1
KBKT 210035Z AUTO 20009KT 10SM SCT050 SCT060 SCT090 A2981 RMK AO1
KBKT 210015Z AUTO 00000KT 10SM BKN050 BKN070 A2981 RMK AO1
KBKT 202355Z AUTO 07003KT 10SM BKN060 BKN070 23/23 A2982 RMK AO1 6//// T02300230
KBKT 202335Z AUTO 13006KT 10SM SCT060 23/23 A2983 RMK AO1 T02330233
KBKT 202315Z AUTO 00000KT 10SM CLR 24/24 A2982 RMK AO1 T02370237
KBKT 202255Z AUTO 20011KT 10SM SCT120 25/25 A2982 RMK AO1 P0001 T02450245
KBKT 202235Z AUTO 20006KT 10SM SCT090 SCT110 23/23 A2981 RMK AO1 P0001 T02340234
KBKT 202215Z AUTO 20008KT 10SM CLR A2979 RMK AO1 P0001
KBKT 202155Z AUTO 22004KT 10SM CLR 23/23 A2981 RMK AO1 P0001 T02280228
KBKT 202135Z AUTO 21007KT 7SM SCT070 SCT090 SCT110 23/23 A2982 RMK AO1 P0001 T02270227
KBKT 202115Z AUTO 27004KT 10SM SCT070 BKN090 OVC110 23/23 A2983 RMK AO1 T02300230
KBKT 202055Z AUTO 01003G16KT 2 1/2SM 22/22 A2983 RMK AO1 VIS 1V5 P0016 6//// T02220222
KBKT 202035Z AUTO 30018G24KT 1 1/4SM SCT009 BKN018 OVC027 24/24 A2984 RMK AO1 P0025 T02430243
KBKT 202015Z AUTO 03005G17KT 10SM SCT023 BKN037 OVC046 26/24 A2982 RMK AO1 T02620241
KBKT 201955Z AUTO 00000KT 10SM SCT035 BKN060 OVC070 30/24 A2982 RMK AO1 T02950236
KBKT 201935Z AUTO 24006KT 10SM SCT033 BKN075 BKN085 31/23 A2982 RMK AO1 T03110233
KBKT 201915Z AUTO 24006KT 10SM SCT033 SCT050 BKN080 30/24 A2983 RMK AO1 T03040240
KBKT 201855Z AUTO 23006KT 10SM BKN033 BKN039 OVC060 30/23 A2983 RMK AO1 T03010231
KBKT 201835Z AUTO 19004KT 10SM BKN033 BKN046 OVC075 30/23 A2984 RMK AO1 T03010232
KBKT 201815Z AUTO 00000KT 10SM SCT029 SCT038 BKN080 31/24 A2985 RMK AO1 T03070243
KBKT 201755Z AUTO 19006KT 10SM BKN029 BKN038 BKN080 31/24 A2985 RMK AO1 6//// T03050244
KBKT 201735Z AUTO 17003KT 10SM BKN031 BKN045 BKN120 30/24 A2986 RMK AO1 T02980235
KBKT 201715Z AUTO 22004KT 10SM BKN029 BKN037 BKN047 30/23 A2987 RMK AO1 T02960234
KBKT 201655Z AUTO 22004KT 10SM BKN029 BKN037 30/24 A2988 RMK AO1 T03030243
KBKT 201635Z AUTO 19003KT 10SM SCT025 BKN032 30/25 A2989 RMK AO1 T02980247
KBKT 201615Z AUTO 00000KT 10SM SCT023 BKN032 BKN042 29/25 A2989 RMK AO1 T02880250
KBKT 201555Z AUTO 00000KT 10SM SCT023 29/24 A2989 RMK AO1 T02900242
KBKT 201535Z AUTO 12003KT 10SM 29/25 A2989 RMK AO1 T02870247